sensor_id;sensor_type;location;lat;lon;timestamp;temperature;humidity
59311;DHT22;45078;51.654;21.250;2023-09-08T00:01:49;17.30;99.90
59311;DHT22;45078;51.654;21.250;2023-09-08T00:04:14;17.40;99.90
59311;DHT22;45078;51.654;21.250;2023-09-08T00:06:41;17.30;99.90
59311;DHT22;45078;51.654;21.250;2023-09-08T00:09:07;17.30;99.90
59311;DHT22;45078;51.654;21.250;2023-09-08T00:11:32;17.30;99.90
59311;DHT22;45078;51.654;21.250;2023-09-08T00:13:58;17.30;99.90
59311;DHT22;45078;51.654;21.250;2023-09-08T00:16:24;17.30;99.90
59311;DHT22;45078;51.654;21.250;2023-09-08T00:18:50;17.20;99.90
59311;DHT22;45078;51.654;21.250;2023-09-08T00:21:15;17.10;99.90
59311;DHT22;45078;51.654;21.250;2023-09-08T00:23:41;17.10;99.90
59311;DHT22;45078;51.654;21.250;2023-09-08T00:26:07;17.00;99.90
59311;DHT22;45078;51.654;21.250;2023-09-08T00:28:32;17.00;99.90
59311;DHT22;45078;51.654;21.250;2023-09-08T00:30:58;17.00;99.90
59311;DHT22;45078;51.654;21.250;2023-09-08T00:33:25;17.00;99.90
59311;DHT22;45078;51.654;21.250;2023-09-08T00:35:51;17.00;99.90
59311;DHT22;45078;51.654;21.250;2023-09-08T00:38:18;16.90;99.90
59311;DHT22;45078;51.654;21.250;2023-09-08T00:40:44;16.90;99.90
59311;DHT22;45078;51.654;21.250;2023-09-08T00:43:10;16.90;99.90
59311;DHT22;45078;51.654;21.250;2023-09-08T00:45:41;16.80;99.90
59311;DHT22;45078;51.654;21.250;2023-09-08T00:48:07;16.70;99.90
59311;DHT22;45078;51.654;21.250;2023-09-08T00:50:34;16.70;99.90
59311;DHT22;45078;51.654;21.250;2023-09-08T00:53:01;16.60;99.90
59311;DHT22;45078;51.654;21.250;2023-09-08T00:55:27;16.70;99.90
59311;DHT22;45078;51.654;21.250;2023-09-08T00:57:53;16.70;99.90
59311;DHT22;45078;51.654;21.250;2023-09-08T01:00:18;16.60;99.90
59311;DHT22;45078;51.654;21.250;2023-09-08T01:02:45;16.70;99.90
59311;DHT22;45078;51.654;21.250;2023-09-08T01:05:11;16.60;99.90
59311;DHT22;45078;51.654;21.250;2023-09-08T01:07:38;16.60;99.90
59311;DHT22;45078;51.654;21.250;2023-09-08T01:10:04;16.60;99.90
59311;DHT22;45078;51.654;21.250;2023-09-08T01:12:31;16.60;99.90
59311;DHT22;45078;51.654;21.250;2023-09-08T01:14:58;16.60;99.90
59311;DHT22;45078;51.654;21.250;2023-09-08T01:17:25;16.60;99.90
59311;DHT22;45078;51.654;21.250;2023-09-08T01:19:54;16.60;99.90
59311;DHT22;45078;51.654;21.250;2023-09-08T01:22:38;16.50;99.90
59311;DHT22;45078;51.654;21.250;2023-09-08T01:25:15;16.50;99.90
59311;DHT22;45078;51.654;21.250;2023-09-08T01:27:53;16.50;99.90
59311;DHT22;45078;51.654;21.250;2023-09-08T01:30:21;16.50;99.90
59311;DHT22;45078;51.654;21.250;2023-09-08T01:32:47;16.60;99.90
59311;DHT22;45078;51.654;21.250;2023-09-08T01:35:13;16.50;99.90
59311;DHT22;45078;51.654;21.250;2023-09-08T01:37:41;16.60;99.90
59311;DHT22;45078;51.654;21.250;2023-09-08T01:40:07;16.50;99.90
59311;DHT22;45078;51.654;21.250;2023-09-08T01:42:34;16.50;99.90
59311;DHT22;45078;51.654;21.250;2023-09-08T01:44:59;16.50;99.90
59311;DHT22;45078;51.654;21.250;2023-09-08T01:47:25;16.50;99.90
59311;DHT22;45078;51.654;21.250;2023-09-08T01:49:51;16.50;99.90
59311;DHT22;45078;51.654;21.250;2023-09-08T01:52:16;16.50;99.90
59311;DHT22;45078;51.654;21.250;2023-09-08T01:54:42;16.50;99.90
59311;DHT22;45078;51.654;21.250;2023-09-08T01:57:07;16.50;99.90
59311;DHT22;45078;51.654;21.250;2023-09-08T01:59:33;16.40;99.90
59311;DHT22;45078;51.654;21.250;2023-09-08T02:01:59;16.40;99.90
59311;DHT22;45078;51.654;21.250;2023-09-08T02:04:24;16.50;99.90
59311;DHT22;45078;51.654;21.250;2023-09-08T02:06:50;16.40;99.90
59311;DHT22;45078;51.654;21.250;2023-09-08T02:09:15;16.40;99.90
59311;DHT22;45078;51.654;21.250;2023-09-08T02:11:41;16.40;99.90
59311;DHT22;45078;51.654;21.250;2023-09-08T02:14:07;16.30;99.90
59311;DHT22;45078;51.654;21.250;2023-09-08T02:16:33;16.30;99.90
59311;DHT22;45078;51.654;21.250;2023-09-08T02:18:59;16.20;99.90
59311;DHT22;45078;51.654;21.250;2023-09-08T02:21:24;16.20;99.90
59311;DHT22;45078;51.654;21.250;2023-09-08T02:23:50;16.20;99.90
59311;DHT22;45078;51.654;21.250;2023-09-08T02:26:16;16.20;99.90
59311;DHT22;45078;51.654;21.250;2023-09-08T02:28:41;16.10;99.90
59311;DHT22;45078;51.654;21.250;2023-09-08T02:31:07;16.10;99.90
59311;DHT22;45078;51.654;21.250;2023-09-08T02:33:32;15.90;99.90
59311;DHT22;45078;51.654;21.250;2023-09-08T02:36:04;15.90;99.90
59311;DHT22;45078;51.654;21.250;2023-09-08T02:38:31;15.80;99.90
59311;DHT22;45078;51.654;21.250;2023-09-08T02:40:57;15.70;99.90
59311;DHT22;45078;51.654;21.250;2023-09-08T02:43:22;15.60;99.90
59311;DHT22;45078;51.654;21.250;2023-09-08T02:45:49;15.60;99.90
59311;DHT22;45078;51.654;21.250;2023-09-08T02:48:14;15.50;99.90
59311;DHT22;45078;51.654;21.250;2023-09-08T02:50:40;15.40;99.90
59311;DHT22;45078;51.654;21.250;2023-09-08T02:53:05;15.30;99.90
59311;DHT22;45078;51.654;21.250;2023-09-08T02:55:31;15.20;99.90
59311;DHT22;45078;51.654;21.250;2023-09-08T02:57:57;15.20;99.90
59311;DHT22;45078;51.654;21.250;2023-09-08T03:00:22;15.10;99.90
59311;DHT22;45078;51.654;21.250;2023-09-08T03:02:48;15.00;99.90
59311;DHT22;45078;51.654;21.250;2023-09-08T03:05:13;15.00;99.90
59311;DHT22;45078;51.654;21.250;2023-09-08T03:07:39;14.90;99.90
59311;DHT22;45078;51.654;21.250;2023-09-08T03:10:05;14.90;99.90
59311;DHT22;45078;51.654;21.250;2023-09-08T03:12:31;14.80;99.90
59311;DHT22;45078;51.654;21.250;2023-09-08T03:14:57;14.70;99.90
59311;DHT22;45078;51.654;21.250;2023-09-08T03:17:22;14.60;99.90
59311;DHT22;45078;51.654;21.250;2023-09-08T03:19:48;14.60;99.90
59311;DHT22;45078;51.654;21.250;2023-09-08T03:22:14;14.60;99.90
59311;DHT22;45078;51.654;21.250;2023-09-08T03:24:39;14.50;99.90
59311;DHT22;45078;51.654;21.250;2023-09-08T03:27:05;14.50;99.90
59311;DHT22;45078;51.654;21.250;2023-09-08T03:29:30;14.50;99.90
59311;DHT22;45078;51.654;21.250;2023-09-08T03:31:56;14.50;99.90
59311;DHT22;45078;51.654;21.250;2023-09-08T03:34:21;14.50;99.90
59311;DHT22;45078;51.654;21.250;2023-09-08T03:36:48;14.50;99.90
59311;DHT22;45078;51.654;21.250;2023-09-08T03:39:14;14.50;99.90
59311;DHT22;45078;51.654;21.250;2023-09-08T03:41:39;14.50;99.90
59311;DHT22;45078;51.654;21.250;2023-09-08T03:44:05;14.40;99.90
59311;DHT22;45078;51.654;21.250;2023-09-08T03:46:30;14.40;99.90
59311;DHT22;45078;51.654;21.250;2023-09-08T03:48:56;14.40;99.90
59311;DHT22;45078;51.654;21.250;2023-09-08T03:51:29;14.30;99.90
59311;DHT22;45078;51.654;21.250;2023-09-08T03:53:54;14.20;99.90
59311;DHT22;45078;51.654;21.250;2023-09-08T03:56:20;14.20;99.90
59311;DHT22;45078;51.654;21.250;2023-09-08T03:58:47;14.20;99.90
59311;DHT22;45078;51.654;21.250;2023-09-08T04:01:12;14.20;99.90
59311;DHT22;45078;51.654;21.250;2023-09-08T04:03:38;14.20;99.90
59311;DHT22;45078;51.654;21.250;2023-09-08T04:06:03;14.20;99.90
59311;DHT22;45078;51.654;21.250;2023-09-08T04:08:29;14.20;99.90
59311;DHT22;45078;51.654;21.250;2023-09-08T04:10:54;14.20;99.90
59311;DHT22;45078;51.654;21.250;2023-09-08T04:13:20;14.20;99.90
59311;DHT22;45078;51.654;21.250;2023-09-08T04:15:45;14.10;99.90
59311;DHT22;45078;51.654;21.250;2023-09-08T04:18:11;14.10;99.90
59311;DHT22;45078;51.654;21.250;2023-09-08T04:20:37;14.00;99.90
59311;DHT22;45078;51.654;21.250;2023-09-08T04:23:02;14.00;99.90
59311;DHT22;45078;51.654;21.250;2023-09-08T04:25:28;14.00;99.90
59311;DHT22;45078;51.654;21.250;2023-09-08T04:27:53;14.00;99.90
59311;DHT22;45078;51.654;21.250;2023-09-08T04:30:19;14.00;99.90
59311;DHT22;45078;51.654;21.250;2023-09-08T04:32:44;14.00;99.90
59311;DHT22;45078;51.654;21.250;2023-09-08T04:35:10;14.00;99.90
59311;DHT22;45078;51.654;21.250;2023-09-08T04:37:36;14.00;99.90
59311;DHT22;45078;51.654;21.250;2023-09-08T04:40:03;14.10;99.90
59311;DHT22;45078;51.654;21.250;2023-09-08T04:42:28;14.10;99.90
59311;DHT22;45078;51.654;21.250;2023-09-08T04:44:54;14.10;99.90
59311;DHT22;45078;51.654;21.250;2023-09-08T04:47:20;14.20;99.90
59311;DHT22;45078;51.654;21.250;2023-09-08T04:49:46;14.30;99.90
59311;DHT22;45078;51.654;21.250;2023-09-08T04:52:11;14.30;99.90
59311;DHT22;45078;51.654;21.250;2023-09-08T04:54:37;14.40;99.90
59311;DHT22;45078;51.654;21.250;2023-09-08T04:57:03;14.50;99.90
59311;DHT22;45078;51.654;21.250;2023-09-08T04:59:29;14.60;99.90
59311;DHT22;45078;51.654;21.250;2023-09-08T05:01:54;14.70;99.90
59311;DHT22;45078;51.654;21.250;2023-09-08T05:04:20;14.80;99.90
59311;DHT22;45078;51.654;21.250;2023-09-08T05:06:46;14.90;99.90
59311;DHT22;45078;51.654;21.250;2023-09-08T05:09:12;15.00;99.90
59311;DHT22;45078;51.654;21.250;2023-09-08T05:11:38;15.10;99.90
59311;DHT22;45078;51.654;21.250;2023-09-08T05:14:03;15.30;99.90
59311;DHT22;45078;51.654;21.250;2023-09-08T05:16:30;15.40;99.90
59311;DHT22;45078;51.654;21.250;2023-09-08T05:19:03;15.60;99.90
59311;DHT22;45078;51.654;21.250;2023-09-08T05:21:30;15.70;99.90
59311;DHT22;45078;51.654;21.250;2023-09-08T05:23:55;15.80;99.90
59311;DHT22;45078;51.654;21.250;2023-09-08T05:26:21;15.90;99.90
59311;DHT22;45078;51.654;21.250;2023-09-08T05:28:46;16.00;99.90
59311;DHT22;45078;51.654;21.250;2023-09-08T05:31:12;16.20;99.90
59311;DHT22;45078;51.654;21.250;2023-09-08T05:33:38;16.30;99.90
59311;DHT22;45078;51.654;21.250;2023-09-08T05:36:03;16.40;99.90
59311;DHT22;45078;51.654;21.250;2023-09-08T05:38:29;16.60;99.90
59311;DHT22;45078;51.654;21.250;2023-09-08T05:40:55;16.80;99.90
59311;DHT22;45078;51.654;21.250;2023-09-08T05:43:21;17.00;99.90
59311;DHT22;45078;51.654;21.250;2023-09-08T05:45:46;17.10;99.90
59311;DHT22;45078;51.654;21.250;2023-09-08T05:48:12;17.30;99.90
59311;DHT22;45078;51.654;21.250;2023-09-08T05:50:37;17.40;99.90
59311;DHT22;45078;51.654;21.250;2023-09-08T05:53:03;17.60;99.90
59311;DHT22;45078;51.654;21.250;2023-09-08T05:55:29;17.70;99.90
59311;DHT22;45078;51.654;21.250;2023-09-08T05:57:55;18.00;99.90
59311;DHT22;45078;51.654;21.250;2023-09-08T06:00:21;18.20;99.90
59311;DHT22;45078;51.654;21.250;2023-09-08T06:02:47;18.60;99.90
59311;DHT22;45078;51.654;21.250;2023-09-08T06:05:13;19.20;99.90
59311;DHT22;45078;51.654;21.250;2023-09-08T06:07:38;19.50;99.90
59311;DHT22;45078;51.654;21.250;2023-09-08T06:10:04;20.00;99.90
59311;DHT22;45078;51.654;21.250;2023-09-08T06:12:30;20.20;99.90
59311;DHT22;45078;51.654;21.250;2023-09-08T06:14:56;20.50;99.90
59311;DHT22;45078;51.654;21.250;2023-09-08T06:17:21;20.40;99.90
59311;DHT22;45078;51.654;21.250;2023-09-08T06:19:47;20.30;99.90
59311;DHT22;45078;51.654;21.250;2023-09-08T06:22:12;20.30;99.90
59311;DHT22;45078;51.654;21.250;2023-09-08T06:24:38;20.20;99.90
59311;DHT22;45078;51.654;21.250;2023-09-08T06:27:04;20.30;99.90
59311;DHT22;45078;51.654;21.250;2023-09-08T06:29:29;20.20;99.90
59311;DHT22;45078;51.654;21.250;2023-09-08T06:31:55;20.40;99.90
59311;DHT22;45078;51.654;21.250;2023-09-08T06:34:20;20.40;99.90
59311;DHT22;45078;51.654;21.250;2023-09-08T06:36:48;20.50;99.90
59311;DHT22;45078;51.654;21.250;2023-09-08T06:39:14;20.30;99.90
59311;DHT22;45078;51.654;21.250;2023-09-08T06:41:39;20.20;99.90
59311;DHT22;45078;51.654;21.250;2023-09-08T06:44:05;20.30;99.90
59311;DHT22;45078;51.654;21.250;2023-09-08T06:46:31;20.50;99.90
59311;DHT22;45078;51.654;21.250;2023-09-08T06:48:56;20.60;99.90
59311;DHT22;45078;51.654;21.250;2023-09-08T06:51:22;20.80;99.90
59311;DHT22;45078;51.654;21.250;2023-09-08T06:53:57;20.90;99.90
59311;DHT22;45078;51.654;21.250;2023-09-08T06:56:23;21.00;99.90
59311;DHT22;45078;51.654;21.250;2023-09-08T06:58:48;20.90;99.90
59311;DHT22;45078;51.654;21.250;2023-09-08T07:01:14;20.90;99.90
59311;DHT22;45078;51.654;21.250;2023-09-08T07:03:40;21.00;99.90
59311;DHT22;45078;51.654;21.250;2023-09-08T07:06:06;20.90;99.90
59311;DHT22;45078;51.654;21.250;2023-09-08T07:08:31;21.10;99.90
59311;DHT22;45078;51.654;21.250;2023-09-08T07:10:57;21.20;99.90
59311;DHT22;45078;51.654;21.250;2023-09-08T07:13:22;21.30;99.90
59311;DHT22;45078;51.654;21.250;2023-09-08T07:15:48;21.30;99.90
59311;DHT22;45078;51.654;21.250;2023-09-08T07:18:14;21.50;99.90
59311;DHT22;45078;51.654;21.250;2023-09-08T07:20:39;21.50;99.90
59311;DHT22;45078;51.654;21.250;2023-09-08T07:23:06;21.60;99.90
59311;DHT22;45078;51.654;21.250;2023-09-08T07:25:31;21.80;99.90
59311;DHT22;45078;51.654;21.250;2023-09-08T07:27:57;21.90;99.90
59311;DHT22;45078;51.654;21.250;2023-09-08T07:30:22;22.10;99.90
59311;DHT22;45078;51.654;21.250;2023-09-08T07:32:48;22.20;99.90
59311;DHT22;45078;51.654;21.250;2023-09-08T07:35:14;22.20;99.90
59311;DHT22;45078;51.654;21.250;2023-09-08T07:37:41;22.30;99.90
59311;DHT22;45078;51.654;21.250;2023-09-08T07:40:10;22.40;99.90
59311;DHT22;45078;51.654;21.250;2023-09-08T07:42:36;22.50;99.90
59311;DHT22;45078;51.654;21.250;2023-09-08T07:45:02;22.40;99.90
59311;DHT22;45078;51.654;21.250;2023-09-08T07:47:27;22.60;99.90
59311;DHT22;45078;51.654;21.250;2023-09-08T07:50:20;22.60;99.90
59311;DHT22;45078;51.654;21.250;2023-09-08T07:52:50;22.70;99.90
59311;DHT22;45078;51.654;21.250;2023-09-08T07:55:17;22.90;99.90
59311;DHT22;45078;51.654;21.250;2023-09-08T07:57:44;23.00;99.90
59311;DHT22;45078;51.654;21.250;2023-09-08T08:00:11;23.00;99.90
59311;DHT22;45078;51.654;21.250;2023-09-08T08:02:41;23.10;99.90
59311;DHT22;45078;51.654;21.250;2023-09-08T08:05:07;23.20;99.90
59311;DHT22;45078;51.654;21.250;2023-09-08T08:07:32;23.30;99.90
59311;DHT22;45078;51.654;21.250;2023-09-08T08:09:58;23.40;99.90
59311;DHT22;45078;51.654;21.250;2023-09-08T08:12:24;23.60;99.90
59311;DHT22;45078;51.654;21.250;2023-09-08T08:14:50;23.50;99.90
59311;DHT22;45078;51.654;21.250;2023-09-08T08:17:15;23.50;99.90
59311;DHT22;45078;51.654;21.250;2023-09-08T08:19:43;23.60;99.90
59311;DHT22;45078;51.654;21.250;2023-09-08T08:22:09;23.70;99.90
59311;DHT22;45078;51.654;21.250;2023-09-08T08:24:34;23.80;99.90
59311;DHT22;45078;51.654;21.250;2023-09-08T08:27:00;23.70;99.90
59311;DHT22;45078;51.654;21.250;2023-09-08T08:29:27;23.70;99.90
59311;DHT22;45078;51.654;21.250;2023-09-08T08:31:52;23.80;99.90
59311;DHT22;45078;51.654;21.250;2023-09-08T08:34:18;24.00;99.90
59311;DHT22;45078;51.654;21.250;2023-09-08T08:36:43;24.10;99.90
59311;DHT22;45078;51.654;21.250;2023-09-08T08:39:09;24.20;99.90
59311;DHT22;45078;51.654;21.250;2023-09-08T08:41:35;24.30;99.90
59311;DHT22;45078;51.654;21.250;2023-09-08T08:44:06;24.30;99.90
59311;DHT22;45078;51.654;21.250;2023-09-08T08:46:33;24.30;99.90
59311;DHT22;45078;51.654;21.250;2023-09-08T08:49:01;24.20;99.90
59311;DHT22;45078;51.654;21.250;2023-09-08T08:51:28;24.30;99.90
59311;DHT22;45078;51.654;21.250;2023-09-08T08:53:55;24.30;99.90
59311;DHT22;45078;51.654;21.250;2023-09-08T08:56:22;24.50;99.90
59311;DHT22;45078;51.654;21.250;2023-09-08T08:58:48;24.60;99.90
59311;DHT22;45078;51.654;21.250;2023-09-08T09:01:16;24.50;99.90
59311;DHT22;45078;51.654;21.250;2023-09-08T09:03:48;24.70;99.90
59311;DHT22;45078;51.654;21.250;2023-09-08T09:06:15;24.90;99.90
59311;DHT22;45078;51.654;21.250;2023-09-08T09:08:43;25.00;99.90
59311;DHT22;45078;51.654;21.250;2023-09-08T09:11:09;25.10;99.90
59311;DHT22;45078;51.654;21.250;2023-09-08T09:13:35;25.10;99.90
59311;DHT22;45078;51.654;21.250;2023-09-08T09:16:01;25.00;99.90
59311;DHT22;45078;51.654;21.250;2023-09-08T09:18:29;25.00;99.90
59311;DHT22;45078;51.654;21.250;2023-09-08T09:20:58;25.10;99.90
59311;DHT22;45078;51.654;21.250;2023-09-08T09:23:31;25.10;99.90
59311;DHT22;45078;51.654;21.250;2023-09-08T09:25:57;25.30;99.90
59311;DHT22;45078;51.654;21.250;2023-09-08T09:28:24;25.10;99.90
59311;DHT22;45078;51.654;21.250;2023-09-08T09:30:53;25.20;99.90
59311;DHT22;45078;51.654;21.250;2023-09-08T09:33:20;25.40;99.90
59311;DHT22;45078;51.654;21.250;2023-09-08T09:35:51;25.60;99.90
59311;DHT22;45078;51.654;21.250;2023-09-08T09:38:17;25.80;99.90
59311;DHT22;45078;51.654;21.250;2023-09-08T09:40:44;25.60;99.90
59311;DHT22;45078;51.654;21.250;2023-09-08T09:43:10;25.80;99.90
59311;DHT22;45078;51.654;21.250;2023-09-08T09:45:37;26.10;99.20
59311;DHT22;45078;51.654;21.250;2023-09-08T09:48:06;25.80;99.10
59311;DHT22;45078;51.654;21.250;2023-09-08T09:50:34;25.90;99.40
59311;DHT22;45078;51.654;21.250;2023-09-08T09:53:01;25.90;99.20
59311;DHT22;45078;51.654;21.250;2023-09-08T09:55:28;26.00;99.50
59311;DHT22;45078;51.654;21.250;2023-09-08T09:57:59;26.20;99.90
59311;DHT22;45078;51.654;21.250;2023-09-08T10:00:30;26.20;98.00
59311;DHT22;45078;51.654;21.250;2023-09-08T10:02:56;26.40;99.30
59311;DHT22;45078;51.654;21.250;2023-09-08T10:05:25;26.40;98.00
59311;DHT22;45078;51.654;21.250;2023-09-08T10:07:52;26.30;97.30
59311;DHT22;45078;51.654;21.250;2023-09-08T10:10:18;26.30;96.80
59311;DHT22;45078;51.654;21.250;2023-09-08T10:12:45;26.40;97.10
59311;DHT22;45078;51.654;21.250;2023-09-08T10:15:12;26.20;96.90
59311;DHT22;45078;51.654;21.250;2023-09-08T10:17:40;25.90;95.70
59311;DHT22;45078;51.654;21.250;2023-09-08T10:20:08;25.50;97.30
59311;DHT22;45078;51.654;21.250;2023-09-08T10:22:42;25.40;97.10
59311;DHT22;45078;51.654;21.250;2023-09-08T10:25:09;25.20;97.50
59311;DHT22;45078;51.654;21.250;2023-09-08T10:27:35;25.10;98.20
59311;DHT22;45078;51.654;21.250;2023-09-08T10:30:04;25.40;98.70
59311;DHT22;45078;51.654;21.250;2023-09-08T10:32:34;25.80;98.60
59311;DHT22;45078;51.654;21.250;2023-09-08T10:35:02;26.20;99.00
59311;DHT22;45078;51.654;21.250;2023-09-08T10:37:28;26.50;98.80
59311;DHT22;45078;51.654;21.250;2023-09-08T10:39:55;26.70;97.00
59311;DHT22;45078;51.654;21.250;2023-09-08T10:42:25;26.60;97.40
59311;DHT22;45078;51.654;21.250;2023-09-08T10:45:00;26.50;96.60
59311;DHT22;45078;51.654;21.250;2023-09-08T10:47:41;26.40;95.60
59311;DHT22;45078;51.654;21.250;2023-09-08T10:50:20;26.30;94.70
59311;DHT22;45078;51.654;21.250;2023-09-08T10:53:07;26.20;97.60
59311;DHT22;45078;51.654;21.250;2023-09-08T10:55:46;26.30;96.80
59311;DHT22;45078;51.654;21.250;2023-09-08T10:58:20;26.10;95.20
59311;DHT22;45078;51.654;21.250;2023-09-08T11:00:48;25.80;94.60
59311;DHT22;45078;51.654;21.250;2023-09-08T11:03:26;25.90;95.30
59311;DHT22;45078;51.654;21.250;2023-09-08T11:05:53;25.90;95.90
59311;DHT22;45078;51.654;21.250;2023-09-08T11:08:19;25.80;96.30
59311;DHT22;45078;51.654;21.250;2023-09-08T11:10:45;25.60;95.60
59311;DHT22;45078;51.654;21.250;2023-09-08T11:13:10;25.70;95.40
59311;DHT22;45078;51.654;21.250;2023-09-08T11:15:37;25.50;96.00
59311;DHT22;45078;51.654;21.250;2023-09-08T11:18:06;25.60;96.70
59311;DHT22;45078;51.654;21.250;2023-09-08T11:20:33;25.90;96.40
59311;DHT22;45078;51.654;21.250;2023-09-08T11:22:59;26.10;96.00
59311;DHT22;45078;51.654;21.250;2023-09-08T11:25:25;26.20;95.60
59311;DHT22;45078;51.654;21.250;2023-09-08T11:27:50;26.60;95.80
59311;DHT22;45078;51.654;21.250;2023-09-08T11:30:16;27.00;95.90
59311;DHT22;45078;51.654;21.250;2023-09-08T11:32:42;27.20;94.90
59311;DHT22;45078;51.654;21.250;2023-09-08T11:35:10;27.20;93.40
59311;DHT22;45078;51.654;21.250;2023-09-08T11:37:40;27.30;93.70
59311;DHT22;45078;51.654;21.250;2023-09-08T11:40:08;27.30;92.80
59311;DHT22;45078;51.654;21.250;2023-09-08T11:42:41;27.30;93.00
59311;DHT22;45078;51.654;21.250;2023-09-08T11:45:15;27.40;92.60
59311;DHT22;45078;51.654;21.250;2023-09-08T11:47:43;27.60;92.70
59311;DHT22;45078;51.654;21.250;2023-09-08T11:50:10;27.60;92.00
59311;DHT22;45078;51.654;21.250;2023-09-08T11:52:44;27.60;92.00
59311;DHT22;45078;51.654;21.250;2023-09-08T11:55:11;27.60;92.30
59311;DHT22;45078;51.654;21.250;2023-09-08T11:57:37;27.70;90.10
59311;DHT22;45078;51.654;21.250;2023-09-08T12:00:04;27.50;88.50
59311;DHT22;45078;51.654;21.250;2023-09-08T12:02:37;27.40;89.20
59311;DHT22;45078;51.654;21.250;2023-09-08T12:05:03;27.70;90.30
59311;DHT22;45078;51.654;21.250;2023-09-08T12:07:29;27.60;90.80
59311;DHT22;45078;51.654;21.250;2023-09-08T12:09:55;27.40;90.00
59311;DHT22;45078;51.654;21.250;2023-09-08T12:12:20;27.10;90.30
59311;DHT22;45078;51.654;21.250;2023-09-08T12:14:46;27.40;89.00
59311;DHT22;45078;51.654;21.250;2023-09-08T12:17:12;27.20;90.40
59311;DHT22;45078;51.654;21.250;2023-09-08T12:19:43;27.10;90.60
59311;DHT22;45078;51.654;21.250;2023-09-08T12:22:09;27.10;90.10
59311;DHT22;45078;51.654;21.250;2023-09-08T12:24:47;27.30;91.10
59311;DHT22;45078;51.654;21.250;2023-09-08T12:27:14;27.40;89.80
59311;DHT22;45078;51.654;21.250;2023-09-08T12:29:42;27.10;90.10
59311;DHT22;45078;51.654;21.250;2023-09-08T12:32:16;27.40;89.00
59311;DHT22;45078;51.654;21.250;2023-09-08T12:34:43;27.50;88.10
59311;DHT22;45078;51.654;21.250;2023-09-08T12:37:10;27.60;87.40
59311;DHT22;45078;51.654;21.250;2023-09-08T12:39:38;27.90;87.40
59311;DHT22;45078;51.654;21.250;2023-09-08T12:42:04;28.20;84.80
59311;DHT22;45078;51.654;21.250;2023-09-08T12:44:29;28.30;85.70
59311;DHT22;45078;51.654;21.250;2023-09-08T12:46:55;28.50;87.40
59311;DHT22;45078;51.654;21.250;2023-09-08T12:49:20;28.70;87.10
59311;DHT22;45078;51.654;21.250;2023-09-08T12:51:46;28.70;85.30
59311;DHT22;45078;51.654;21.250;2023-09-08T12:54:11;28.90;85.10
59311;DHT22;45078;51.654;21.250;2023-09-08T12:56:37;29.10;81.10
59311;DHT22;45078;51.654;21.250;2023-09-08T12:59:03;29.00;81.00
59311;DHT22;45078;51.654;21.250;2023-09-08T13:01:28;28.90;81.90
59311;DHT22;45078;51.654;21.250;2023-09-08T13:03:54;28.70;83.70
59311;DHT22;45078;51.654;21.250;2023-09-08T13:06:20;28.80;81.80
59311;DHT22;45078;51.654;21.250;2023-09-08T13:08:45;28.70;81.40
59311;DHT22;45078;51.654;21.250;2023-09-08T13:11:11;28.90;81.90
59311;DHT22;45078;51.654;21.250;2023-09-08T13:13:36;29.10;81.90
59311;DHT22;45078;51.654;21.250;2023-09-08T13:16:02;29.40;80.60
59311;DHT22;45078;51.654;21.250;2023-09-08T13:18:28;29.70;80.30
59311;DHT22;45078;51.654;21.250;2023-09-08T13:20:53;29.60;78.50
59311;DHT22;45078;51.654;21.250;2023-09-08T13:23:19;30.00;78.40
59311;DHT22;45078;51.654;21.250;2023-09-08T13:25:44;30.30;81.50
59311;DHT22;45078;51.654;21.250;2023-09-08T13:28:10;30.20;77.70
59311;DHT22;45078;51.654;21.250;2023-09-08T13:30:36;30.10;77.00
59311;DHT22;45078;51.654;21.250;2023-09-08T13:33:01;30.10;75.60
59311;DHT22;45078;51.654;21.250;2023-09-08T13:35:27;30.10;77.10
59311;DHT22;45078;51.654;21.250;2023-09-08T13:37:53;30.10;75.40
59311;DHT22;45078;51.654;21.250;2023-09-08T13:40:18;30.00;75.50
59311;DHT22;45078;51.654;21.250;2023-09-08T13:42:44;30.40;76.30
59311;DHT22;45078;51.654;21.250;2023-09-08T13:45:10;30.70;73.80
59311;DHT22;45078;51.654;21.250;2023-09-08T13:47:36;31.10;74.00
59311;DHT22;45078;51.654;21.250;2023-09-08T13:50:03;31.70;71.30
59311;DHT22;45078;51.654;21.250;2023-09-08T13:52:29;32.50;71.30
59311;DHT22;45078;51.654;21.250;2023-09-08T13:54:54;33.60;70.10
59311;DHT22;45078;51.654;21.250;2023-09-08T13:57:20;34.80;67.80
59311;DHT22;45078;51.654;21.250;2023-09-08T13:59:46;35.90;64.80
59311;DHT22;45078;51.654;21.250;2023-09-08T14:02:12;37.00;61.60
59311;DHT22;45078;51.654;21.250;2023-09-08T14:04:37;37.50;58.00
59311;DHT22;45078;51.654;21.250;2023-09-08T14:07:05;37.70;56.70
59311;DHT22;45078;51.654;21.250;2023-09-08T14:09:31;37.50;54.90
59311;DHT22;45078;51.654;21.250;2023-09-08T14:11:56;37.50;55.20
59311;DHT22;45078;51.654;21.250;2023-09-08T14:14:22;37.80;54.90
59311;DHT22;45078;51.654;21.250;2023-09-08T14:16:49;36.80;55.90
59311;DHT22;45078;51.654;21.250;2023-09-08T14:19:15;36.00;57.20
59311;DHT22;45078;51.654;21.250;2023-09-08T14:21:41;36.40;57.20
59311;DHT22;45078;51.654;21.250;2023-09-08T14:24:06;36.60;55.30
59311;DHT22;45078;51.654;21.250;2023-09-08T14:26:32;36.70;55.80
59311;DHT22;45078;51.654;21.250;2023-09-08T14:28:58;37.20;54.80
59311;DHT22;45078;51.654;21.250;2023-09-08T14:31:23;37.40;54.70
59311;DHT22;45078;51.654;21.250;2023-09-08T14:33:49;37.40;52.70
59311;DHT22;45078;51.654;21.250;2023-09-08T14:36:18;37.80;53.50
59311;DHT22;45078;51.654;21.250;2023-09-08T14:38:44;38.30;53.90
59311;DHT22;45078;51.654;21.250;2023-09-08T14:41:10;37.90;52.50
59311;DHT22;45078;51.654;21.250;2023-09-08T14:43:35;37.90;52.90
59311;DHT22;45078;51.654;21.250;2023-09-08T14:46:01;36.70;54.00
59311;DHT22;45078;51.654;21.250;2023-09-08T14:48:28;34.50;56.40
59311;DHT22;45078;51.654;21.250;2023-09-08T14:50:56;33.10;57.80
59311;DHT22;45078;51.654;21.250;2023-09-08T14:53:22;31.80;60.30
59311;DHT22;45078;51.654;21.250;2023-09-08T14:55:48;31.90;62.90
59311;DHT22;45078;51.654;21.250;2023-09-08T14:58:16;31.50;61.00
59311;DHT22;45078;51.654;21.250;2023-09-08T15:00:42;31.60;62.40
59311;DHT22;45078;51.654;21.250;2023-09-08T15:03:09;32.10;62.20
59311;DHT22;45078;51.654;21.250;2023-09-08T15:05:35;32.30;62.30
59311;DHT22;45078;51.654;21.250;2023-09-08T15:08:01;31.90;61.30
59311;DHT22;45078;51.654;21.250;2023-09-08T15:10:27;31.80;63.00
59311;DHT22;45078;51.654;21.250;2023-09-08T15:12:53;31.90;64.00